sensor_id;sensor_type;location;lat;lon;timestamp;P1;durP1;ratioP1;P2;durP2;ratioP2
62435;SDS011;48480;50.252;18.848;2022-08-19T10:23:12;10.10;;;6.30;;
62435;SDS011;48480;50.252;18.848;2022-08-19T10:25:59;11.30;;;6.60;;
62435;SDS011;48480;50.252;18.848;2022-08-19T10:31:06;6.50;;;5.90;;
62435;SDS011;48480;50.252;18.848;2022-08-19T10:33:35;8.50;;;5.60;;
62435;SDS011;48480;50.252;18.848;2022-08-19T10:36:07;8.40;;;6.10;;
62435;SDS011;48480;50.252;18.848;2022-08-19T10:38:36;9.00;;;6.00;;
62435;SDS011;48480;50.252;18.848;2022-08-19T10:41:12;10.00;;;5.50;;
62435;SDS011;48480;50.252;18.848;2022-08-19T10:43:44;6.10;;;5.40;;
62435;SDS011;48480;50.252;18.848;2022-08-19T10:46:13;9.10;;;6.20;;
62435;SDS011;48480;50.252;18.848;2022-08-19T10:48:42;10.00;;;5.90;;
62435;SDS011;48480;50.252;18.848;2022-08-19T10:51:16;7.80;;;5.60;;
62435;SDS011;48480;50.252;18.848;2022-08-19T10:54:03;13.00;;;6.60;;
62435;SDS011;48480;50.252;18.848;2022-08-19T10:56:30;7.50;;;5.90;;
62435;SDS011;48480;50.252;18.848;2022-08-19T10:59:12;11.50;;;6.00;;
62435;SDS011;48480;50.252;18.848;2022-08-19T11:01:40;8.00;;;6.00;;
62435;SDS011;48480;50.252;18.848;2022-08-19T11:04:08;11.40;;;6.40;;
62435;SDS011;48480;50.252;18.848;2022-08-19T11:06:40;9.80;;;6.20;;
62435;SDS011;48480;50.252;18.848;2022-08-19T11:11:36;9.40;;;5.90;;
62435;SDS011;48480;50.252;18.848;2022-08-19T11:14:12;8.90;;;5.90;;
62435;SDS011;48480;50.252;18.848;2022-08-19T11:16:41;11.30;;;6.10;;
62435;SDS011;48480;50.252;18.848;2022-08-19T11:19:09;9.10;;;6.00;;
62435;SDS011;48480;50.252;18.848;2022-08-19T11:21:43;6.10;;;5.50;;
62435;SDS011;48480;50.252;18.848;2022-08-19T11:24:16;9.10;;;6.00;;
62435;SDS011;48480;50.252;18.848;2022-08-19T11:26:51;10.20;;;6.00;;
62435;SDS011;48480;50.252;18.848;2022-08-19T11:31:53;11.90;;;6.10;;
62435;SDS011;48480;50.252;18.848;2022-08-19T11:34:21;10.90;;;5.70;;
62435;SDS011;48480;50.252;18.848;2022-08-19T11:36:51;8.70;;;5.40;;
62435;SDS011;48480;50.252;18.848;2022-08-19T11:39:20;9.30;;;5.70;;
62435;SDS011;48480;50.252;18.848;2022-08-19T11:44:16;9.60;;;5.50;;
62435;SDS011;48480;50.252;18.848;2022-08-19T11:46:43;8.90;;;5.10;;
62435;SDS011;48480;50.252;18.848;2022-08-19T11:49:13;9.60;;;5.90;;
62435;SDS011;48480;50.252;18.848;2022-08-19T11:51:42;12.20;;;5.40;;
62435;SDS011;48480;50.252;18.848;2022-08-19T11:56:39;9.00;;;4.90;;
62435;SDS011;48480;50.252;18.848;2022-08-19T11:59:07;9.30;;;5.50;;
62435;SDS011;48480;50.252;18.848;2022-08-19T12:01:35;7.50;;;5.30;;
62435;SDS011;48480;50.252;18.848;2022-08-19T12:04:01;10.10;;;5.50;;
62435;SDS011;48480;50.252;18.848;2022-08-19T12:09:05;10.10;;;5.50;;
62435;SDS011;48480;50.252;18.848;2022-08-19T12:11:33;9.50;;;5.70;;
62435;SDS011;48480;50.252;18.848;2022-08-19T12:14:00;9.50;;;5.50;;
62435;SDS011;48480;50.252;18.848;2022-08-19T12:16:27;10.70;;;5.30;;
62435;SDS011;48480;50.252;18.848;2022-08-19T12:21:26;11.20;;;5.60;;
62435;SDS011;48480;50.252;18.848;2022-08-19T12:23:57;11.80;;;5.60;;
62435;SDS011;48480;50.252;18.848;2022-08-19T12:26:26;8.80;;;5.30;;
62435;SDS011;48480;50.252;18.848;2022-08-19T12:28:53;12.60;;;5.60;;
62435;SDS011;48480;50.252;18.848;2022-08-19T12:33:50;7.90;;;5.30;;
62435;SDS011;48480;50.252;18.848;2022-08-19T12:36:18;9.10;;;5.60;;
62435;SDS011;48480;50.252;18.848;2022-08-19T12:38:45;7.50;;;5.70;;
62435;SDS011;48480;50.252;18.848;2022-08-19T12:41:17;8.30;;;5.60;;
62435;SDS011;48480;50.252;18.848;2022-08-19T12:46:13;10.90;;;5.30;;
62435;SDS011;48480;50.252;18.848;2022-08-19T12:48:40;8.90;;;5.30;;
62435;SDS011;48480;50.252;18.848;2022-08-19T12:51:13;9.40;;;5.20;;
62435;SDS011;48480;50.252;18.848;2022-08-19T12:53:42;9.00;;;5.40;;
62435;SDS011;48480;50.252;18.848;2022-08-19T12:58:37;9.10;;;5.30;;
62435;SDS011;48480;50.252;18.848;2022-08-19T13:01:09;7.60;;;5.00;;
62435;SDS011;48480;50.252;18.848;2022-08-19T13:03:39;16.60;;;5.60;;
62435;SDS011;48480;50.252;18.848;2022-08-19T13:06:07;8.50;;;5.10;;
62435;SDS011;48480;50.252;18.848;2022-08-19T13:11:34;12.40;;;5.20;;
62435;SDS011;48480;50.252;18.848;2022-08-19T13:13:58;7.90;;;5.00;;
62435;SDS011;48480;50.252;18.848;2022-08-19T13:18:54;9.60;;;5.00;;
62435;SDS011;48480;50.252;18.848;2022-08-19T13:21:23;7.20;;;4.70;;
62435;SDS011;48480;50.252;18.848;2022-08-19T13:23:51;13.60;;;5.80;;
62435;SDS011;48480;50.252;18.848;2022-08-19T13:26:18;11.50;;;5.20;;
62435;SDS011;48480;50.252;18.848;2022-08-19T13:31:41;9.60;;;4.70;;
62435;SDS011;48480;50.252;18.848;2022-08-19T13:36:54;7.60;;;5.00;;
62435;SDS011;48480;50.252;18.848;2022-08-19T13:39:21;8.40;;;4.70;;
62435;SDS011;48480;50.252;18.848;2022-08-19T13:41:49;11.60;;;4.80;;
62435;SDS011;48480;50.252;18.848;2022-08-19T13:44:17;8.80;;;4.80;;
62435;SDS011;48480;50.252;18.848;2022-08-19T13:49:20;13.40;;;4.70;;
62435;SDS011;48480;50.252;18.848;2022-08-19T13:51:49;14.00;;;5.20;;
62435;SDS011;48480;50.252;18.848;2022-08-19T13:54:16;10.00;;;4.60;;
62435;SDS011;48480;50.252;18.848;2022-08-19T13:56:43;11.00;;;4.60;;
62435;SDS011;48480;50.252;18.848;2022-08-19T14:01:41;17.30;;;4.70;;
62435;SDS011;48480;50.252;18.848;2022-08-19T14:04:08;11.30;;;4.60;;
62435;SDS011;48480;50.252;18.848;2022-08-19T14:06:35;8.30;;;4.70;;
62435;SDS011;48480;50.252;18.848;2022-08-19T14:09:02;9.90;;;5.00;;
62435;SDS011;48480;50.252;18.848;2022-08-19T14:11:29;11.00;;;4.90;;
62435;SDS011;48480;50.252;18.848;2022-08-19T14:14:01;10.80;;;4.80;;
62435;SDS011;48480;50.252;18.848;2022-08-19T14:16:28;11.00;;;5.20;;
62435;SDS011;48480;50.252;18.848;2022-08-19T14:18:56;8.50;;;4.80;;
62435;SDS011;48480;50.252;18.848;2022-08-19T14:21:23;8.20;;;4.90;;
62435;SDS011;48480;50.252;18.848;2022-08-19T14:23:51;9.40;;;5.00;;
62435;SDS011;48480;50.252;18.848;2022-08-19T14:28:44;13.10;;;4.90;;
62435;SDS011;48480;50.252;18.848;2022-08-19T14:31:12;11.80;;;5.00;;
62435;SDS011;48480;50.252;18.848;2022-08-19T14:33:42;7.90;;;4.70;;
62435;SDS011;48480;50.252;18.848;2022-08-19T14:36:09;10.70;;;5.10;;
62435;SDS011;48480;50.252;18.848;2022-08-19T14:38:53;9.10;;;5.10;;
62435;SDS011;48480;50.252;18.848;2022-08-19T14:41:27;11.40;;;4.80;;
62435;SDS011;48480;50.252;18.848;2022-08-19T14:44:04;7.60;;;4.60;;
62435;SDS011;48480;50.252;18.848;2022-08-19T14:49:02;9.10;;;4.60;;
62435;SDS011;48480;50.252;18.848;2022-08-19T14:51:29;9.10;;;4.50;;
62435;SDS011;48480;50.252;18.848;2022-08-19T14:53:56;8.70;;;4.20;;
62435;SDS011;48480;50.252;18.848;2022-08-19T14:56:24;8.40;;;4.20;;
62435;SDS011;48480;50.252;18.848;2022-08-19T15:01:23;12.40;;;4.30;;
62435;SDS011;48480;50.252;18.848;2022-08-19T15:06:22;9.60;;;4.70;;
62435;SDS011;48480;50.252;18.848;2022-08-19T15:08:49;10.90;;;4.60;;
62435;SDS011;48480;50.252;18.848;2022-08-19T15:13:49;11.70;;;4.30;;
62435;SDS011;48480;50.252;18.848;2022-08-19T15:16:20;8.80;;;4.70;;
62435;SDS011;48480;50.252;18.848;2022-08-19T15:18:49;14.10;;;5.10;;
62435;SDS011;48480;50.252;18.848;2022-08-19T15:23:58;11.20;;;4.90;;
62435;SDS011;48480;50.252;18.848;2022-08-19T15:26:29;10.10;;;5.00;;
62435;SDS011;48480;50.252;18.848;2022-08-19T15:29:05;9.00;;;4.50;;
62435;SDS011;48480;50.252;18.848;2022-08-19T15:32:05;9.70;;;4.80;;
62435;SDS011;48480;50.252;18.848;2022-08-19T15:34:53;9.90;;;4.60;;
62435;SDS011;48480;50.252;18.848;2022-08-19T15:37:26;11.60;;;4.90;;
62435;SDS011;48480;50.252;18.848;2022-08-19T15:39:53;9.10;;;4.90;;
62435;SDS011;48480;50.252;18.848;2022-08-19T15:42:22;13.90;;;8.70;;
62435;SDS011;48480;50.252;18.848;2022-08-19T15:44:49;12.90;;;6.40;;
62435;SDS011;48480;50.252;18.848;2022-08-19T15:49:55;12.70;;;6.00;;
62435;SDS011;48480;50.252;18.848;2022-08-19T15:52:28;11.80;;;5.50;;
62435;SDS011;48480;50.252;18.848;2022-08-19T15:55:03;9.80;;;5.20;;
62435;SDS011;48480;50.252;18.848;2022-08-19T15:57:47;12.40;;;5.70;;
62435;SDS011;48480;50.252;18.848;2022-08-19T16:01:06;12.10;;;5.90;;
62435;SDS011;48480;50.252;18.848;2022-08-19T16:03:53;8.40;;;5.50;;
62435;SDS011;48480;50.252;18.848;2022-08-19T16:06:50;11.90;;;5.70;;
62435;SDS011;48480;50.252;18.848;2022-08-19T16:15:08;11.60;;;6.00;;
62435;SDS011;48480;50.252;18.848;2022-08-19T16:20:18;11.50;;;6.50;;
62435;SDS011;48480;50.252;18.848;2022-08-19T16:22:52;12.80;;;6.40;;
62435;SDS011;48480;50.252;18.848;2022-08-19T16:25:21;10.70;;;5.80;;
62435;SDS011;48480;50.252;18.848;2022-08-19T16:28:07;9.60;;;6.60;;
62435;SDS011;48480;50.252;18.848;2022-08-19T16:30:46;9.80;;;5.60;;
62435;SDS011;48480;50.252;18.848;2022-08-19T16:33:14;11.60;;;6.20;;
62435;SDS011;48480;50.252;18.848;2022-08-19T16:38:16;12.00;;;6.30;;
62435;SDS011;48480;50.252;18.848;2022-08-19T16:40:48;12.00;;;5.80;;
62435;SDS011;48480;50.252;18.848;2022-08-19T16:43:20;9.70;;;5.90;;
62435;SDS011;48480;50.252;18.848;2022-08-19T16:50:39;16.10;;;6.90;;
62435;SDS011;48480;50.252;18.848;2022-08-19T16:53:07;17.30;;;6.60;;
62435;SDS011;48480;50.252;18.848;2022-08-19T16:55:35;14.90;;;7.20;;
62435;SDS011;48480;50.252;18.848;2022-08-19T16:58:03;15.50;;;7.10;;
62435;SDS011;48480;50.252;18.848;2022-08-19T17:00:31;16.90;;;7.10;;
62435;SDS011;48480;50.252;18.848;2022-08-19T17:03:06;12.90;;;6.80;;
62435;SDS011;48480;50.252;18.848;2022-08-19T17:05:42;10.90;;;7.50;;
62435;SDS011;48480;50.252;18.848;2022-08-19T17:08:29;14.30;;;7.30;;
62435;SDS011;48480;50.252;18.848;2022-08-19T17:11:00;18.40;;;7.40;;
62435;SDS011;48480;50.252;18.848;2022-08-19T17:13:33;14.50;;;7.60;;
62435;SDS011;48480;50.252;18.848;2022-08-19T17:16:00;13.00;;;7.40;;
62435;SDS011;48480;50.252;18.848;2022-08-19T17:18:27;12.20;;;7.70;;
62435;SDS011;48480;50.252;18.848;2022-08-19T17:21:00;15.50;;;7.70;;
62435;SDS011;48480;50.252;18.848;2022-08-19T17:23:35;20.40;;;8.00;;
62435;SDS011;48480;50.252;18.848;2022-08-19T17:26:02;14.60;;;7.20;;
62435;SDS011;48480;50.252;18.848;2022-08-19T17:28:33;15.50;;;6.60;;
62435;SDS011;48480;50.252;18.848;2022-08-19T17:31:00;10.40;;;5.60;;
62435;SDS011;48480;50.252;18.848;2022-08-19T17:33:27;17.90;;;7.30;;
62435;SDS011;48480;50.252;18.848;2022-08-19T17:35:54;13.40;;;6.40;;
62435;SDS011;48480;50.252;18.848;2022-08-19T17:38:22;12.90;;;6.30;;
62435;SDS011;48480;50.252;18.848;2022-08-19T17:40:49;13.10;;;5.40;;
62435;SDS011;48480;50.252;18.848;2022-08-19T17:43:16;9.30;;;3.70;;
62435;SDS011;48480;50.252;18.848;2022-08-19T17:45:47;7.90;;;4.00;;
62435;SDS011;48480;50.252;18.848;2022-08-19T17:48:13;8.10;;;4.10;;
62435;SDS011;48480;50.252;18.848;2022-08-19T17:50:41;8.40;;;4.70;;
62435;SDS011;48480;50.252;18.848;2022-08-19T17:53:08;7.60;;;4.50;;
62435;SDS011;48480;50.252;18.848;2022-08-19T17:55:35;7.50;;;4.30;;
62435;SDS011;48480;50.252;18.848;2022-08-19T17:58:02;13.90;;;5.00;;
62435;SDS011;48480;50.252;18.848;2022-08-19T18:00:31;7.90;;;5.30;;
62435;SDS011;48480;50.252;18.848;2022-08-19T18:02:59;12.10;;;5.30;;
62435;SDS011;48480;50.252;18.848;2022-08-19T18:05:30;6.80;;;4.50;;
62435;SDS011;48480;50.252;18.848;2022-08-19T18:08:05;8.50;;;4.30;;
62435;SDS011;48480;50.252;18.848;2022-08-19T18:10:34;12.00;;;4.90;;
62435;SDS011;48480;50.252;18.848;2022-08-19T18:13:01;9.90;;;4.50;;
62435;SDS011;48480;50.252;18.848;2022-08-19T18:15:29;8.10;;;4.60;;
62435;SDS011;48480;50.252;18.848;2022-08-19T18:17:56;8.40;;;5.00;;
62435;SDS011;48480;50.252;18.848;2022-08-19T18:20:22;12.40;;;4.70;;
62435;SDS011;48480;50.252;18.848;2022-08-19T18:22:49;10.90;;;5.30;;
62435;SDS011;48480;50.252;18.848;2022-08-19T18:25:17;12.50;;;6.40;;
62435;SDS011;48480;50.252;18.848;2022-08-19T18:27:51;10.70;;;5.60;;
62435;SDS011;48480;50.252;18.848;2022-08-19T18:30:20;11.50;;;5.20;;
62435;SDS011;48480;50.252;18.848;2022-08-19T18:32:48;11.90;;;5.00;;
62435;SDS011;48480;50.252;18.848;2022-08-19T18:35:19;7.70;;;4.20;;
62435;SDS011;48480;50.252;18.848;2022-08-19T18:37:48;7.50;;;4.30;;
62435;SDS011;48480;50.252;18.848;2022-08-19T18:40:16;10.40;;;4.80;;
62435;SDS011;48480;50.252;18.848;2022-08-19T18:43:05;7.80;;;5.00;;
62435;SDS011;48480;50.252;18.848;2022-08-19T18:46:01;8.10;;;4.80;;
62435;SDS011;48480;50.252;18.848;2022-08-19T18:48:46;9.00;;;4.60;;
62435;SDS011;48480;50.252;18.848;2022-08-19T18:51:31;8.80;;;5.10;;
62435;SDS011;48480;50.252;18.848;2022-08-19T18:53:58;10.50;;;5.20;;
62435;SDS011;48480;50.252;18.848;2022-08-19T18:56:29;9.30;;;5.40;;
62435;SDS011;48480;50.252;18.848;2022-08-19T18:59:00;8.10;;;5.50;;
62435;SDS011;48480;50.252;18.848;2022-08-19T19:01:35;11.60;;;5.80;;
62435;SDS011;48480;50.252;18.848;2022-08-19T19:04:06;8.80;;;5.50;;
62435;SDS011;48480;50.252;18.848;2022-08-19T19:06:42;9.50;;;5.70;;
62435;SDS011;48480;50.252;18.848;2022-08-19T19:09:10;11.80;;;6.50;;
62435;SDS011;48480;50.252;18.848;2022-08-19T19:11:43;9.90;;;5.90;;
62435;SDS011;48480;50.252;18.848;2022-08-19T19:16:42;11.10;;;4.70;;
62435;SDS011;48480;50.252;18.848;2022-08-19T19:19:11;10.00;;;5.50;;
62435;SDS011;48480;50.252;18.848;2022-08-19T19:21:40;9.00;;;5.10;;
62435;SDS011;48480;50.252;18.848;2022-08-19T19:24:14;13.00;;;5.80;;
62435;SDS011;48480;50.252;18.848;2022-08-19T19:26:48;10.50;;;6.30;;
62435;SDS011;48480;50.252;18.848;2022-08-19T19:29:19;10.30;;;6.40;;
62435;SDS011;48480;50.252;18.848;2022-08-19T19:31:46;13.80;;;6.20;;
62435;SDS011;48480;50.252;18.848;2022-08-19T19:34:17;10.40;;;6.90;;
62435;SDS011;48480;50.252;18.848;2022-08-19T19:36:46;9.60;;;6.70;;
62435;SDS011;48480;50.252;18.848;2022-08-19T19:39:15;12.90;;;7.00;;
62435;SDS011;48480;50.252;18.848;2022-08-19T19:41:44;9.70;;;7.00;;
62435;SDS011;48480;50.252;18.848;2022-08-19T19:44:19;10.70;;;7.10;;
62435;SDS011;48480;50.252;18.848;2022-08-19T19:46:46;12.60;;;7.20;;
62435;SDS011;48480;50.252;18.848;2022-08-19T19:49:13;11.50;;;7.30;;
62435;SDS011;48480;50.252;18.848;2022-08-19T19:51:41;13.60;;;6.80;;
62435;SDS011;48480;50.252;18.848;2022-08-19T19:54:09;10.40;;;6.80;;
62435;SDS011;48480;50.252;18.848;2022-08-19T19:56:40;11.30;;;6.80;;
62435;SDS011;48480;50.252;18.848;2022-08-19T19:59:11;11.50;;;7.00;;
62435;SDS011;48480;50.252;18.848;2022-08-19T20:01:38;9.60;;;6.40;;
62435;SDS011;48480;50.252;18.848;2022-08-19T20:04:12;12.40;;;7.10;;
62435;SDS011;48480;50.252;18.848;2022-08-19T20:06:39;9.90;;;7.30;;
62435;SDS011;48480;50.252;18.848;2022-08-19T20:09:11;14.40;;;7.40;;
62435;SDS011;48480;50.252;18.848;2022-08-19T20:11:42;11.30;;;6.70;;
62435;SDS011;48480;50.252;18.848;2022-08-19T20:14:16;12.60;;;6.20;;
62435;SDS011;48480;50.252;18.848;2022-08-19T20:16:45;11.50;;;6.10;;
62435;SDS011;48480;50.252;18.848;2022-08-19T20:19:15;12.90;;;6.80;;
62435;SDS011;48480;50.252;18.848;2022-08-19T20:21:47;14.40;;;6.60;;
62435;SDS011;48480;50.252;18.848;2022-08-19T20:24:32;11.60;;;6.90;;
62435;SDS011;48480;50.252;18.848;2022-08-19T20:27:07;10.90;;;7.60;;
62435;SDS011;48480;50.252;18.848;2022-08-19T20:29:34;11.00;;;6.90;;
62435;SDS011;48480;50.252;18.848;2022-08-19T20:32:09;13.00;;;7.20;;
62435;SDS011;48480;50.252;18.848;2022-08-19T20:34:46;11.40;;;6.70;;
62435;SDS011;48480;50.252;18.848;2022-08-19T20:37:14;11.90;;;6.80;;
62435;SDS011;48480;50.252;18.848;2022-08-19T20:42:19;11.80;;;6.70;;
62435;SDS011;48480;50.252;18.848;2022-08-19T20:44:47;10.10;;;6.80;;
62435;SDS011;48480;50.252;18.848;2022-08-19T20:47:23;13.60;;;7.20;;
62435;SDS011;48480;50.252;18.848;2022-08-19T20:49:50;11.40;;;7.10;;
62435;SDS011;48480;50.252;18.848;2022-08-19T20:52:17;8.80;;;6.60;;
62435;SDS011;48480;50.252;18.848;2022-08-19T20:54:44;10.60;;;7.60;;
62435;SDS011;48480;50.252;18.848;2022-08-19T20:57:14;9.60;;;7.40;;
62435;SDS011;48480;50.252;18.848;2022-08-19T20:59:49;9.70;;;7.60;;
62435;SDS011;48480;50.252;18.848;2022-08-19T21:02:23;10.90;;;8.10;;
62435;SDS011;48480;50.252;18.848;2022-08-19T21:05:00;10.40;;;8.10;;
62435;SDS011;48480;50.252;18.848;2022-08-19T21:07:26;10.90;;;7.80;;
62435;SDS011;48480;50.252;18.848;2022-08-19T21:09:53;11.50;;;7.80;;
62435;SDS011;48480;50.252;18.848;2022-08-19T21:12:24;13.50;;;8.30;;
62435;SDS011;48480;50.252;18.848;2022-08-19T21:14:52;11.20;;;7.60;;
62435;SDS011;48480;50.252;18.848;2022-08-19T21:17:21;10.90;;;8.40;;
62435;SDS011;48480;50.252;18.848;2022-08-19T21:19:48;9.60;;;8.20;;
62435;SDS011;48480;50.252;18.848;2022-08-19T21:22:16;12.40;;;8.20;;
62435;SDS011;48480;50.252;18.848;2022-08-19T21:24:45;14.20;;;8.10;;
62435;SDS011;48480;50.252;18.848;2022-08-19T21:27:12;11.90;;;7.80;;
62435;SDS011;48480;50.252;18.848;2022-08-19T21:29:39;9.30;;;7.60;;
62435;SDS011;48480;50.252;18.848;2022-08-19T21:32:07;12.60;;;7.50;;
62435;SDS011;48480;50.252;18.848;2022-08-19T21:34:37;12.60;;;9.50;;
62435;SDS011;48480;50.252;18.848;2022-08-19T21:37:04;15.10;;;10.90;;
62435;SDS011;48480;50.252;18.848;2022-08-19T21:39:31;16.80;;;12.20;;
62435;SDS011;48480;50.252;18.848;2022-08-19T21:42:02;15.60;;;11.60;;
62435;SDS011;48480;50.252;18.848;2022-08-19T21:44:29;15.50;;;10.60;;
62435;SDS011;48480;50.252;18.848;2022-08-19T21:46:56;17.00;;;11.10;;
62435;SDS011;48480;50.252;18.848;2022-08-19T21:49:23;15.10;;;11.00;;
62435;SDS011;48480;50.252;18.848;2022-08-19T21:51:51;18.10;;;11.70;;
62435;SDS011;48480;50.252;18.848;2022-08-19T21:54:17;15.00;;;11.10;;
62435;SDS011;48480;50.252;18.848;2022-08-19T21:56:44;14.80;;;10.80;;
62435;SDS011;48480;50.252;18.848;2022-08-19T21:59:12;14.90;;;10.70;;
62435;SDS011;48480;50.252;18.848;2022-08-19T22:01:38;16.00;;;11.10;;
62435;SDS011;48480;50.252;18.848;2022-08-19T22:04:05;13.20;;;10.90;;
62435;SDS011;48480;50.252;18.848;2022-08-19T22:06:31;15.60;;;11.00;;
62435;SDS011;48480;50.252;18.848;2022-08-19T22:08:58;16.60;;;12.70;;
62435;SDS011;48480;50.252;18.848;2022-08-19T22:11:25;14.00;;;11.50;;
62435;SDS011;48480;50.252;18.848;2022-08-19T22:13:52;17.60;;;13.00;;
62435;SDS011;48480;50.252;18.848;2022-08-19T22:16:19;15.90;;;13.00;;
62435;SDS011;48480;50.252;18.848;2022-08-19T22:18:46;16.90;;;14.10;;
62435;SDS011;48480;50.252;18.848;2022-08-19T22:21:16;15.10;;;13.50;;
62435;SDS011;48480;50.252;18.848;2022-08-19T22:23:45;18.90;;;13.50;;
62435;SDS011;48480;50.252;18.848;2022-08-19T22:26:13;15.50;;;14.00;;
62435;SDS011;48480;50.252;18.848;2022-08-19T22:28:41;17.20;;;14.00;;
62435;SDS011;48480;50.252;18.848;2022-08-19T22:31:09;16.60;;;14.70;;
62435;SDS011;48480;50.252;18.848;2022-08-19T22:33:36;18.30;;;14.50;;
62435;SDS011;48480;50.252;18.848;2022-08-19T22:36:04;17.50;;;14.20;;
62435;SDS011;48480;50.252;18.848;2022-08-19T22:38:35;18.50;;;15.20;;
62435;SDS011;48480;50.252;18.848;2022-08-19T22:41:03;17.90;;;14.50;;
62435;SDS011;48480;50.252;18.848;2022-08-19T22:43:30;16.50;;;13.80;;
62435;SDS011;48480;50.252;18.848;2022-08-19T22:45:57;18.80;;;13.40;;
62435;SDS011;48480;50.252;18.848;2022-08-19T22:48:26;18.20;;;14.50;;
62435;SDS011;48480;50.252;18.848;2022-08-19T22:50:55;17.80;;;13.90;;
62435;SDS011;48480;50.252;18.848;2022-08-19T22:53:42;18.80;;;14.10;;
62435;SDS011;48480;50.252;18.848;2022-08-19T22:56:10;20.50;;;13.80;;
62435;SDS011;48480;50.252;18.848;2022-08-19T22:58:38;15.70;;;13.40;;
62435;SDS011;48480;50.252;18.848;2022-08-19T23:01:05;16.10;;;12.90;;
62435;SDS011;48480;50.252;18.848;2022-08-19T23:03:32;17.40;;;11.50;;
62435;SDS011;48480;50.252;18.848;2022-08-19T23:05:59;16.30;;;11.30;;
62435;SDS011;48480;50.252;18.848;2022-08-19T23:08:26;10.20;;;8.90;;
62435;SDS011;48480;50.252;18.848;2022-08-19T23:10:52;11.30;;;8.60;;
62435;SDS011;48480;50.252;18.848;2022-08-19T23:13:19;15.00;;;9.00;;
62435;SDS011;48480;50.252;18.848;2022-08-19T23:15:46;13.90;;;8.80;;
62435;SDS011;48480;50.252;18.848;2022-08-19T23:18:12;12.40;;;8.00;;
62435;SDS011;48480;50.252;18.848;2022-08-19T23:20:40;10.00;;;8.00;;
62435;SDS011;48480;50.252;18.848;2022-08-19T23:23:09;11.80;;;7.90;;
62435;SDS011;48480;50.252;18.848;2022-08-19T23:25:37;12.10;;;8.80;;
62435;SDS011;48480;50.252;18.848;2022-08-19T23:28:05;10.60;;;8.40;;
62435;SDS011;48480;50.252;18.848;2022-08-19T23:30:51;12.20;;;8.10;;
62435;SDS011;48480;50.252;18.848;2022-08-19T23:33:22;10.70;;;8.70;;
62435;SDS011;48480;50.252;18.848;2022-08-19T23:35:54;13.70;;;9.50;;
62435;SDS011;48480;50.252;18.848;2022-08-19T23:38:24;14.30;;;9.10;;
62435;SDS011;48480;50.252;18.848;2022-08-19T23:40:54;11.20;;;8.30;;
62435;SDS011;48480;50.252;18.848;2022-08-19T23:43:23;11.10;;;8.20;;
62435;SDS011;48480;50.252;18.848;2022-08-19T23:45:50;12.40;;;9.00;;
62435;SDS011;48480;50.252;18.848;2022-08-19T23:48:18;12.00;;;8.70;;
62435;SDS011;48480;50.252;18.848;2022-08-19T23:50:45;16.90;;;9.20;;
62435;SDS011;48480;50.252;18.848;2022-08-19T23:53:12;11.80;;;8.70;;
62435;SDS011;48480;50.252;18.848;2022-08-19T23:55:41;12.50;;;8.90;;
62435;SDS011;48480;50.252;18.848;2022-08-19T23:58:10;14.10;;;9.00;;
